sensor_id;sensor_type;location;lat;lon;timestamp;P1;durP1;ratioP1;P2;durP2;ratioP2
37407;SDS011;24866;50.248;8.252;2024-02-26T00:00:52;1.42;;;0.88;;
37407;SDS011;24866;50.248;8.252;2024-02-26T00:03:23;1.73;;;0.63;;
37407;SDS011;24866;50.248;8.252;2024-02-26T00:05:53;1.63;;;0.50;;
37407;SDS011;24866;50.248;8.252;2024-02-26T00:08:24;0.88;;;0.50;;
37407;SDS011;24866;50.248;8.252;2024-02-26T00:10:54;1.23;;;0.65;;
37407;SDS011;24866;50.248;8.252;2024-02-26T00:13:24;1.75;;;0.68;;
37407;SDS011;24866;50.248;8.252;2024-02-26T00:15:55;1.55;;;0.65;;
37407;SDS011;24866;50.248;8.252;2024-02-26T00:18:26;3.47;;;1.27;;
37407;SDS011;24866;50.248;8.252;2024-02-26T00:20:57;1.55;;;0.50;;
37407;SDS011;24866;50.248;8.252;2024-02-26T00:23:27;1.35;;;0.50;;
37407;SDS011;24866;50.248;8.252;2024-02-26T00:25:57;3.75;;;1.40;;
37407;SDS011;24866;50.248;8.252;2024-02-26T00:28:27;2.85;;;1.05;;
37407;SDS011;24866;50.248;8.252;2024-02-26T00:30:58;2.22;;;0.82;;
37407;SDS011;24866;50.248;8.252;2024-02-26T00:33:29;2.20;;;0.70;;
37407;SDS011;24866;50.248;8.252;2024-02-26T00:35:59;1.45;;;0.57;;
37407;SDS011;24866;50.248;8.252;2024-02-26T00:38:30;1.75;;;0.60;;
37407;SDS011;24866;50.248;8.252;2024-02-26T00:41:00;1.25;;;0.50;;
37407;SDS011;24866;50.248;8.252;2024-02-26T00:43:30;1.02;;;0.50;;
37407;SDS011;24866;50.248;8.252;2024-02-26T00:46:00;1.55;;;1.00;;
37407;SDS011;24866;50.248;8.252;2024-02-26T00:48:32;2.45;;;0.80;;
37407;SDS011;24866;50.248;8.252;2024-02-26T00:51:03;2.53;;;0.60;;
37407;SDS011;24866;50.248;8.252;2024-02-26T00:53:33;1.80;;;0.65;;
37407;SDS011;24866;50.248;8.252;2024-02-26T00:56:04;1.42;;;0.60;;
37407;SDS011;24866;50.248;8.252;2024-02-26T00:58:34;3.50;;;0.90;;
37407;SDS011;24866;50.248;8.252;2024-02-26T01:01:04;2.22;;;0.70;;
37407;SDS011;24866;50.248;8.252;2024-02-26T01:03:36;2.10;;;0.60;;
37407;SDS011;24866;50.248;8.252;2024-02-26T01:06:06;1.77;;;0.50;;
37407;SDS011;24866;50.248;8.252;2024-02-26T01:08:36;2.42;;;0.65;;
37407;SDS011;24866;50.248;8.252;2024-02-26T01:11:07;1.23;;;0.50;;
37407;SDS011;24866;50.248;8.252;2024-02-26T01:13:37;3.22;;;0.70;;
37407;SDS011;24866;50.248;8.252;2024-02-26T01:16:07;3.20;;;1.40;;
37407;SDS011;24866;50.248;8.252;2024-02-26T01:18:40;3.00;;;1.00;;
37407;SDS011;24866;50.248;8.252;2024-02-26T01:21:10;1.30;;;0.70;;
37407;SDS011;24866;50.248;8.252;2024-02-26T01:23:41;1.65;;;0.60;;
37407;SDS011;24866;50.248;8.252;2024-02-26T01:26:11;1.65;;;0.98;;
37407;SDS011;24866;50.248;8.252;2024-02-26T01:28:41;2.17;;;1.05;;
37407;SDS011;24866;50.248;8.252;2024-02-26T01:31:12;2.03;;;0.77;;
37407;SDS011;24866;50.248;8.252;2024-02-26T01:33:43;1.65;;;0.80;;
37407;SDS011;24866;50.248;8.252;2024-02-26T01:36:13;2.50;;;1.00;;
37407;SDS011;24866;50.248;8.252;2024-02-26T01:38:43;2.40;;;0.93;;
37407;SDS011;24866;50.248;8.252;2024-02-26T01:41:14;2.53;;;1.00;;
37407;SDS011;24866;50.248;8.252;2024-02-26T01:43:44;1.92;;;0.73;;
37407;SDS011;24866;50.248;8.252;2024-02-26T01:46:14;5.35;;;2.00;;
37407;SDS011;24866;50.248;8.252;2024-02-26T01:48:45;3.58;;;1.50;;
37407;SDS011;24866;50.248;8.252;2024-02-26T01:51:18;2.80;;;0.98;;
37407;SDS011;24866;50.248;8.252;2024-02-26T01:53:48;1.45;;;0.60;;
37407;SDS011;24866;50.248;8.252;2024-02-26T01:56:18;1.77;;;0.60;;
37407;SDS011;24866;50.248;8.252;2024-02-26T01:58:49;1.33;;;0.55;;
37407;SDS011;24866;50.248;8.252;2024-02-26T02:01:19;1.52;;;0.55;;
37407;SDS011;24866;50.248;8.252;2024-02-26T02:03:52;1.15;;;0.55;;
37407;SDS011;24866;50.248;8.252;2024-02-26T02:06:23;1.65;;;0.68;;
37407;SDS011;24866;50.248;8.252;2024-02-26T02:08:54;2.03;;;0.95;;
37407;SDS011;24866;50.248;8.252;2024-02-26T02:11:24;1.92;;;1.02;;
37407;SDS011;24866;50.248;8.252;2024-02-26T02:13:54;1.85;;;0.73;;
37407;SDS011;24866;50.248;8.252;2024-02-26T02:16:24;1.77;;;0.75;;
37407;SDS011;24866;50.248;8.252;2024-02-26T02:18:56;1.40;;;0.60;;
37407;SDS011;24866;50.248;8.252;2024-02-26T02:21:27;1.13;;;0.65;;
37407;SDS011;24866;50.248;8.252;2024-02-26T02:23:57;2.05;;;0.63;;
37407;SDS011;24866;50.248;8.252;2024-02-26T02:26:27;1.38;;;0.70;;
37407;SDS011;24866;50.248;8.252;2024-02-26T02:28:58;1.45;;;0.60;;
37407;SDS011;24866;50.248;8.252;2024-02-26T02:31:28;2.35;;;0.70;;
37407;SDS011;24866;50.248;8.252;2024-02-26T02:33:58;3.22;;;0.73;;
37407;SDS011;24866;50.248;8.252;2024-02-26T02:36:30;2.25;;;0.98;;
37407;SDS011;24866;50.248;8.252;2024-02-26T02:39:00;2.45;;;1.10;;
37407;SDS011;24866;50.248;8.252;2024-02-26T02:41:31;1.85;;;1.13;;
37407;SDS011;24866;50.248;8.252;2024-02-26T02:44:01;1.00;;;0.52;;
37407;SDS011;24866;50.248;8.252;2024-02-26T02:46:31;1.02;;;0.60;;
37407;SDS011;24866;50.248;8.252;2024-02-26T02:49:03;2.17;;;1.45;;
37407;SDS011;24866;50.248;8.252;2024-02-26T02:51:34;1.33;;;0.75;;
37407;SDS011;24866;50.248;8.252;2024-02-26T02:54:04;2.13;;;0.80;;
37407;SDS011;24866;50.248;8.252;2024-02-26T02:56:35;1.92;;;0.80;;
37407;SDS011;24866;50.248;8.252;2024-02-26T02:59:05;1.35;;;0.80;;
37407;SDS011;24866;50.248;8.252;2024-02-26T03:01:35;2.50;;;0.90;;
37407;SDS011;24866;50.248;8.252;2024-02-26T03:04:05;3.45;;;0.80;;
37407;SDS011;24866;50.248;8.252;2024-02-26T03:06:37;2.83;;;0.90;;
37407;SDS011;24866;50.248;8.252;2024-02-26T03:09:07;1.63;;;0.70;;
37407;SDS011;24866;50.248;8.252;2024-02-26T03:11:37;1.48;;;0.70;;
37407;SDS011;24866;50.248;8.252;2024-02-26T03:14:08;2.05;;;0.90;;
37407;SDS011;24866;50.248;8.252;2024-02-26T03:16:38;2.80;;;1.20;;
37407;SDS011;24866;50.248;8.252;2024-02-26T03:19:08;2.00;;;0.98;;
37407;SDS011;24866;50.248;8.252;2024-02-26T03:21:40;2.25;;;0.90;;
37407;SDS011;24866;50.248;8.252;2024-02-26T03:24:10;3.80;;;1.00;;
37407;SDS011;24866;50.248;8.252;2024-02-26T03:26:40;2.13;;;0.93;;
37407;SDS011;24866;50.248;8.252;2024-02-26T03:29:10;3.72;;;1.20;;
37407;SDS011;24866;50.248;8.252;2024-02-26T03:31:40;2.92;;;1.20;;
37407;SDS011;24866;50.248;8.252;2024-02-26T03:34:10;6.22;;;1.38;;
37407;SDS011;24866;50.248;8.252;2024-02-26T03:36:43;3.47;;;1.80;;
37407;SDS011;24866;50.248;8.252;2024-02-26T03:39:14;2.38;;;1.20;;
37407;SDS011;24866;50.248;8.252;2024-02-26T03:41:44;2.47;;;1.17;;
37407;SDS011;24866;50.248;8.252;2024-02-26T03:44:14;2.15;;;0.90;;
37407;SDS011;24866;50.248;8.252;2024-02-26T03:46:44;2.47;;;1.55;;
37407;SDS011;24866;50.248;8.252;2024-02-26T03:49:14;3.80;;;1.45;;
37407;SDS011;24866;50.248;8.252;2024-02-26T03:51:46;2.53;;;1.20;;
37407;SDS011;24866;50.248;8.252;2024-02-26T03:54:16;3.72;;;1.30;;
37407;SDS011;24866;50.248;8.252;2024-02-26T03:56:46;3.03;;;1.33;;
37407;SDS011;24866;50.248;8.252;2024-02-26T03:59:16;3.15;;;1.15;;
37407;SDS011;24866;50.248;8.252;2024-02-26T04:01:47;2.20;;;1.08;;
37407;SDS011;24866;50.248;8.252;2024-02-26T04:04:17;4.00;;;1.08;;
37407;SDS011;24866;50.248;8.252;2024-02-26T04:06:49;2.53;;;1.30;;
37407;SDS011;24866;50.248;8.252;2024-02-26T04:09:19;2.80;;;1.30;;
37407;SDS011;24866;50.248;8.252;2024-02-26T04:11:49;3.00;;;1.70;;
37407;SDS011;24866;50.248;8.252;2024-02-26T04:14:19;4.65;;;1.60;;
37407;SDS011;24866;50.248;8.252;2024-02-26T04:16:49;2.78;;;1.40;;
37407;SDS011;24866;50.248;8.252;2024-02-26T04:19:22;2.58;;;1.42;;
37407;SDS011;24866;50.248;8.252;2024-02-26T04:21:54;3.45;;;1.50;;
37407;SDS011;24866;50.248;8.252;2024-02-26T04:24:24;2.65;;;1.15;;
37407;SDS011;24866;50.248;8.252;2024-02-26T04:26:54;1.98;;;1.20;;
37407;SDS011;24866;50.248;8.252;2024-02-26T04:29:24;2.47;;;1.30;;
37407;SDS011;24866;50.248;8.252;2024-02-26T04:31:54;2.90;;;1.30;;
37407;SDS011;24866;50.248;8.252;2024-02-26T04:34:24;2.22;;;1.38;;
37407;SDS011;24866;50.248;8.252;2024-02-26T04:36:56;2.67;;;1.50;;
37407;SDS011;24866;50.248;8.252;2024-02-26T04:39:26;2.92;;;1.50;;
37407;SDS011;24866;50.248;8.252;2024-02-26T04:41:56;4.13;;;1.88;;
37407;SDS011;24866;50.248;8.252;2024-02-26T04:44:26;3.22;;;1.20;;
37407;SDS011;24866;50.248;8.252;2024-02-26T04:46:56;3.00;;;1.80;;
37407;SDS011;24866;50.248;8.252;2024-02-26T04:49:26;2.90;;;1.40;;
37407;SDS011;24866;50.248;8.252;2024-02-26T04:51:58;5.78;;;1.92;;
37407;SDS011;24866;50.248;8.252;2024-02-26T04:54:28;5.53;;;1.88;;
37407;SDS011;24866;50.248;8.252;2024-02-26T04:56:58;3.67;;;1.80;;
37407;SDS011;24866;50.248;8.252;2024-02-26T04:59:28;5.40;;;2.97;;
37407;SDS011;24866;50.248;8.252;2024-02-26T05:01:58;6.70;;;3.20;;
37407;SDS011;24866;50.248;8.252;2024-02-26T05:04:28;6.88;;;2.92;;
37407;SDS011;24866;50.248;8.252;2024-02-26T05:07:00;4.72;;;2.17;;
37407;SDS011;24866;50.248;8.252;2024-02-26T05:09:30;4.25;;;2.00;;
37407;SDS011;24866;50.248;8.252;2024-02-26T05:12:00;4.50;;;2.15;;
37407;SDS011;24866;50.248;8.252;2024-02-26T05:14:31;5.28;;;2.38;;
37407;SDS011;24866;50.248;8.252;2024-02-26T05:17:02;4.88;;;2.20;;
37407;SDS011;24866;50.248;8.252;2024-02-26T05:19:32;4.47;;;1.95;;
37407;SDS011;24866;50.248;8.252;2024-02-26T05:22:03;4.47;;;2.03;;
37407;SDS011;24866;50.248;8.252;2024-02-26T05:24:33;4.15;;;2.00;;
37407;SDS011;24866;50.248;8.252;2024-02-26T05:27:04;4.82;;;2.00;;
37407;SDS011;24866;50.248;8.252;2024-02-26T05:29:34;5.97;;;2.25;;
37407;SDS011;24866;50.248;8.252;2024-02-26T05:32:04;6.10;;;1.80;;
37407;SDS011;24866;50.248;8.252;2024-02-26T05:34:35;6.32;;;1.95;;
37407;SDS011;24866;50.248;8.252;2024-02-26T05:37:06;13.15;;;2.45;;
37407;SDS011;24866;50.248;8.252;2024-02-26T05:39:36;12.32;;;2.53;;
37407;SDS011;24866;50.248;8.252;2024-02-26T05:42:07;8.60;;;2.50;;
37407;SDS011;24866;50.248;8.252;2024-02-26T05:44:38;4.70;;;2.10;;
37407;SDS011;24866;50.248;8.252;2024-02-26T05:47:08;4.28;;;2.30;;
37407;SDS011;24866;50.248;8.252;2024-02-26T05:49:38;7.32;;;2.67;;
37407;SDS011;24866;50.248;8.252;2024-02-26T05:52:09;4.65;;;2.22;;
37407;SDS011;24866;50.248;8.252;2024-02-26T05:54:40;5.32;;;2.78;;
37407;SDS011;24866;50.248;8.252;2024-02-26T05:57:10;4.32;;;2.22;;
37407;SDS011;24866;50.248;8.252;2024-02-26T05:59:40;4.05;;;2.10;;
37407;SDS011;24866;50.248;8.252;2024-02-26T06:02:10;5.45;;;2.28;;
37407;SDS011;24866;50.248;8.252;2024-02-26T06:04:40;4.30;;;2.35;;
37407;SDS011;24866;50.248;8.252;2024-02-26T06:07:12;3.05;;;1.70;;
37407;SDS011;24866;50.248;8.252;2024-02-26T06:09:42;3.70;;;2.10;;
37407;SDS011;24866;50.248;8.252;2024-02-26T06:12:12;5.22;;;2.17;;
37407;SDS011;24866;50.248;8.252;2024-02-26T06:14:42;5.05;;;2.22;;
37407;SDS011;24866;50.248;8.252;2024-02-26T06:17:12;7.07;;;2.20;;
37407;SDS011;24866;50.248;8.252;2024-02-26T06:19:42;6.22;;;2.88;;
37407;SDS011;24866;50.248;8.252;2024-02-26T06:22:14;5.18;;;2.40;;
37407;SDS011;24866;50.248;8.252;2024-02-26T06:24:44;4.53;;;2.40;;
37407;SDS011;24866;50.248;8.252;2024-02-26T06:27:14;3.88;;;1.85;;
37407;SDS011;24866;50.248;8.252;2024-02-26T06:29:44;5.32;;;2.00;;
37407;SDS011;24866;50.248;8.252;2024-02-26T06:32:15;4.50;;;2.40;;
37407;SDS011;24866;50.248;8.252;2024-02-26T06:34:45;8.25;;;2.20;;
37407;SDS011;24866;50.248;8.252;2024-02-26T06:37:16;8.20;;;2.80;;
37407;SDS011;24866;50.248;8.252;2024-02-26T06:39:47;6.00;;;2.90;;
37407;SDS011;24866;50.248;8.252;2024-02-26T06:42:17;8.00;;;3.72;;
37407;SDS011;24866;50.248;8.252;2024-02-26T06:44:47;6.30;;;2.90;;
37407;SDS011;24866;50.248;8.252;2024-02-26T06:47:17;9.32;;;5.32;;
37407;SDS011;24866;50.248;8.252;2024-02-26T06:49:48;5.22;;;3.50;;
37407;SDS011;24866;50.248;8.252;2024-02-26T06:52:20;7.38;;;2.75;;
37407;SDS011;24866;50.248;8.252;2024-02-26T06:54:50;7.18;;;3.47;;
37407;SDS011;24866;50.248;8.252;2024-02-26T06:57:21;5.82;;;3.40;;
37407;SDS011;24866;50.248;8.252;2024-02-26T06:59:52;6.63;;;4.45;;
37407;SDS011;24866;50.248;8.252;2024-02-26T07:02:23;6.80;;;4.38;;
37407;SDS011;24866;50.248;8.252;2024-02-26T07:04:53;8.77;;;5.00;;
37407;SDS011;24866;50.248;8.252;2024-02-26T07:07:25;7.07;;;3.95;;
37407;SDS011;24866;50.248;8.252;2024-02-26T07:09:55;6.90;;;3.63;;
37407;SDS011;24866;50.248;8.252;2024-02-26T07:12:25;7.00;;;4.03;;
37407;SDS011;24866;50.248;8.252;2024-02-26T07:14:56;6.30;;;3.42;;
37407;SDS011;24866;50.248;8.252;2024-02-26T07:17:26;9.15;;;3.90;;
37407;SDS011;24866;50.248;8.252;2024-02-26T07:19:56;6.32;;;3.58;;
37407;SDS011;24866;50.248;8.252;2024-02-26T07:22:28;6.05;;;4.03;;
37407;SDS011;24866;50.248;8.252;2024-02-26T07:24:58;9.65;;;3.58;;
37407;SDS011;24866;50.248;8.252;2024-02-26T07:27:28;6.70;;;3.60;;
37407;SDS011;24866;50.248;8.252;2024-02-26T07:29:58;6.47;;;4.70;;
37407;SDS011;24866;50.248;8.252;2024-02-26T07:32:28;6.70;;;3.83;;
37407;SDS011;24866;50.248;8.252;2024-02-26T07:34:59;6.90;;;4.00;;
37407;SDS011;24866;50.248;8.252;2024-02-26T07:37:30;6.95;;;4.00;;
37407;SDS011;24866;50.248;8.252;2024-02-26T07:40:00;8.15;;;4.25;;
37407;SDS011;24866;50.248;8.252;2024-02-26T07:42:31;5.85;;;3.35;;
37407;SDS011;24866;50.248;8.252;2024-02-26T07:45:01;4.75;;;3.28;;
37407;SDS011;24866;50.248;8.252;2024-02-26T07:47:32;5.80;;;3.15;;
37407;SDS011;24866;50.248;8.252;2024-02-26T07:50:02;5.28;;;2.83;;
37407;SDS011;24866;50.248;8.252;2024-02-26T07:52:34;5.80;;;3.35;;
37407;SDS011;24866;50.248;8.252;2024-02-26T07:55:05;6.40;;;3.63;;
37407;SDS011;24866;50.248;8.252;2024-02-26T07:57:35;6.28;;;3.38;;
37407;SDS011;24866;50.248;8.252;2024-02-26T08:00:07;5.97;;;3.08;;
37407;SDS011;24866;50.248;8.252;2024-02-26T08:02:37;6.38;;;3.15;;
37407;SDS011;24866;50.248;8.252;2024-02-26T08:05:07;4.45;;;2.50;;
37407;SDS011;24866;50.248;8.252;2024-02-26T08:07:39;6.22;;;4.03;;
37407;SDS011;24866;50.248;8.252;2024-02-26T08:10:09;11.55;;;6.45;;
37407;SDS011;24866;50.248;8.252;2024-02-26T08:12:40;15.98;;;8.02;;
37407;SDS011;24866;50.248;8.252;2024-02-26T08:15:10;12.70;;;6.28;;
37407;SDS011;24866;50.248;8.252;2024-02-26T08:17:40;7.57;;;3.85;;
37407;SDS011;24866;50.248;8.252;2024-02-26T08:20:11;6.88;;;3.47;;
37407;SDS011;24866;50.248;8.252;2024-02-26T08:22:42;6.40;;;3.67;;
37407;SDS011;24866;50.248;8.252;2024-02-26T08:25:12;9.93;;;3.80;;
37407;SDS011;24866;50.248;8.252;2024-02-26T08:27:44;6.78;;;3.70;;
37407;SDS011;24866;50.248;8.252;2024-02-26T08:30:15;6.07;;;3.72;;
37407;SDS011;24866;50.248;8.252;2024-02-26T08:32:47;6.25;;;3.20;;
37407;SDS011;24866;50.248;8.252;2024-02-26T08:35:17;5.90;;;3.03;;
37407;SDS011;24866;50.248;8.252;2024-02-26T08:37:49;6.30;;;3.40;;
37407;SDS011;24866;50.248;8.252;2024-02-26T08:40:19;6.47;;;3.08;;
37407;SDS011;24866;50.248;8.252;2024-02-26T08:42:49;7.47;;;3.58;;
37407;SDS011;24866;50.248;8.252;2024-02-26T08:45:19;7.25;;;3.35;;
37407;SDS011;24866;50.248;8.252;2024-02-26T08:47:50;5.35;;;3.40;;
37407;SDS011;24866;50.248;8.252;2024-02-26T08:50:20;6.13;;;3.45;;
37407;SDS011;24866;50.248;8.252;2024-02-26T08:52:51;5.53;;;2.88;;
37407;SDS011;24866;50.248;8.252;2024-02-26T08:55:22;6.65;;;3.22;;
37407;SDS011;24866;50.248;8.252;2024-02-26T08:57:52;5.35;;;3.10;;
37407;SDS011;24866;50.248;8.252;2024-02-26T09:00:22;5.95;;;3.38;;
37407;SDS011;24866;50.248;8.252;2024-02-26T09:02:52;5.43;;;3.28;;
37407;SDS011;24866;50.248;8.252;2024-02-26T09:05:22;6.22;;;2.78;;
37407;SDS011;24866;50.248;8.252;2024-02-26T09:07:54;5.72;;;2.95;;
37407;SDS011;24866;50.248;8.252;2024-02-26T09:10:24;4.35;;;2.75;;
37407;SDS011;24866;50.248;8.252;2024-02-26T09:12:54;4.57;;;2.50;;
37407;SDS011;24866;50.248;8.252;2024-02-26T09:15:24;6.03;;;3.53;;
37407;SDS011;24866;50.248;8.252;2024-02-26T09:17:55;5.57;;;3.10;;
37407;SDS011;24866;50.248;8.252;2024-02-26T09:20:25;9.35;;;4.43;;
37407;SDS011;24866;50.248;8.252;2024-02-26T09:22:57;5.07;;;2.95;;
37407;SDS011;24866;50.248;8.252;2024-02-26T09:25:27;9.13;;;4.50;;
37407;SDS011;24866;50.248;8.252;2024-02-26T09:27:57;6.20;;;3.30;;
37407;SDS011;24866;50.248;8.252;2024-02-26T09:30:27;8.60;;;3.28;;
37407;SDS011;24866;50.248;8.252;2024-02-26T09:32:58;5.00;;;2.90;;
37407;SDS011;24866;50.248;8.252;2024-02-26T09:35:28;5.32;;;2.60;;
37407;SDS011;24866;50.248;8.252;2024-02-26T09:38:00;5.93;;;3.05;;
37407;SDS011;24866;50.248;8.252;2024-02-26T09:40:30;6.32;;;2.88;;
37407;SDS011;24866;50.248;8.252;2024-02-26T09:43:01;6.28;;;2.85;;
37407;SDS011;24866;50.248;8.252;2024-02-26T09:45:33;3.70;;;1.92;;
37407;SDS011;24866;50.248;8.252;2024-02-26T09:48:04;5.25;;;3.08;;
37407;SDS011;24866;50.248;8.252;2024-02-26T09:50:36;6.28;;;3.53;;
37407;SDS011;24866;50.248;8.252;2024-02-26T09:53:09;12.18;;;5.60;;
37407;SDS011;24866;50.248;8.252;2024-02-26T09:58:10;4.53;;;2.45;;
37407;SDS011;24866;50.248;8.252;2024-02-26T10:00:46;5.70;;;3.20;;
37407;SDS011;24866;50.248;8.252;2024-02-26T10:03:17;5.85;;;2.88;;
37407;SDS011;24866;50.248;8.252;2024-02-26T10:05:50;5.57;;;3.35;;
37407;SDS011;24866;50.248;8.252;2024-02-26T10:08:25;6.57;;;3.55;;
37407;SDS011;24866;50.248;8.252;2024-02-26T10:13:26;6.57;;;3.40;;
37407;SDS011;24866;50.248;8.252;2024-02-26T10:15:56;5.43;;;3.35;;
37407;SDS011;24866;50.248;8.252;2024-02-26T10:18:26;9.27;;;4.32;;
37407;SDS011;24866;50.248;8.252;2024-02-26T10:21:00;6.25;;;3.85;;
37407;SDS011;24866;50.248;8.252;2024-02-26T10:23:32;7.00;;;3.85;;
37407;SDS011;24866;50.248;8.252;2024-02-26T10:26:03;7.77;;;4.30;;
37407;SDS011;24866;50.248;8.252;2024-02-26T10:28:33;6.65;;;3.72;;
37407;SDS011;24866;50.248;8.252;2024-02-26T10:31:04;9.32;;;4.47;;
37407;SDS011;24866;50.248;8.252;2024-02-26T10:33:34;9.38;;;4.13;;
37407;SDS011;24866;50.248;8.252;2024-02-26T10:36:05;6.57;;;3.72;;
37407;SDS011;24866;50.248;8.252;2024-02-26T10:38:37;7.28;;;4.50;;
37407;SDS011;24866;50.248;8.252;2024-02-26T10:41:12;6.65;;;4.22;;
37407;SDS011;24866;50.248;8.252;2024-02-26T10:43:43;6.30;;;3.80;;
37407;SDS011;24866;50.248;8.252;2024-02-26T10:46:13;9.82;;;4.32;;
37407;SDS011;24866;50.248;8.252;2024-02-26T10:48:49;7.82;;;3.83;;
37407;SDS011;24866;50.248;8.252;2024-02-26T10:51:20;8.20;;;4.80;;
37407;SDS011;24866;50.248;8.252;2024-02-26T10:53:54;8.30;;;4.57;;
37407;SDS011;24866;50.248;8.252;2024-02-26T10:56:26;7.18;;;3.90;;
37407;SDS011;24866;50.248;8.252;2024-02-26T10:58:57;6.30;;;3.75;;
37407;SDS011;24866;50.248;8.252;2024-02-26T11:01:28;6.80;;;3.97;;
37407;SDS011;24866;50.248;8.252;2024-02-26T11:03:59;5.75;;;3.38;;
37407;SDS011;24866;50.248;8.252;2024-02-26T11:06:31;6.75;;;4.15;;
37407;SDS011;24866;50.248;8.252;2024-02-26T11:09:04;6.20;;;3.80;;
37407;SDS011;24866;50.248;8.252;2024-02-26T11:11:35;5.30;;;3.13;;
37407;SDS011;24866;50.248;8.252;2024-02-26T11:14:05;6.20;;;3.22;;
37407;SDS011;24866;50.248;8.252;2024-02-26T11:16:37;4.72;;;2.90;;
37407;SDS011;24866;50.248;8.252;2024-02-26T11:19:11;3.97;;;2.60;;
37407;SDS011;24866;50.248;8.252;2024-02-26T11:21:42;4.57;;;2.83;;
37407;SDS011;24866;50.248;8.252;2024-02-26T11:24:14;4.53;;;2.42;;
37407;SDS011;24866;50.248;8.252;2024-02-26T11:26:47;4.95;;;2.63;;
37407;SDS011;24866;50.248;8.252;2024-02-26T11:29:19;3.88;;;2.63;;
37407;SDS011;24866;50.248;8.252;2024-02-26T11:31:52;4.18;;;2.42;;
37407;SDS011;24866;50.248;8.252;2024-02-26T11:34:22;5.45;;;2.60;;
37407;SDS011;24866;50.248;8.252;2024-02-26T11:36:53;4.55;;;2.00;;
37407;SDS011;24866;50.248;8.252;2024-02-26T11:39:25;3.90;;;1.95;;
37407;SDS011;24866;50.248;8.252;2024-02-26T11:41:56;2.72;;;1.50;;
37407;SDS011;24866;50.248;8.252;2024-02-26T11:44:36;3.03;;;1.60;;
37407;SDS011;24866;50.248;8.252;2024-02-26T11:47:10;4.07;;;1.55;;
37407;SDS011;24866;50.248;8.252;2024-02-26T11:49:41;2.80;;;1.35;;
37407;SDS011;24866;50.248;8.252;2024-02-26T11:52:12;2.35;;;1.15;;
37407;SDS011;24866;50.248;8.252;2024-02-26T11:54:45;2.42;;;1.27;;
37407;SDS011;24866;50.248;8.252;2024-02-26T11:59:45;2.30;;;1.10;;
37407;SDS011;24866;50.248;8.252;2024-02-26T12:05:01;3.33;;;1.15;;
37407;SDS011;24866;50.248;8.252;2024-02-26T12:07:31;3.67;;;1.42;;
37407;SDS011;24866;50.248;8.252;2024-02-26T12:12:55;2.25;;;1.35;;
37407;SDS011;24866;50.248;8.252;2024-02-26T12:15:31;2.92;;;1.25;;
37407;SDS011;24866;50.248;8.252;2024-02-26T12:18:02;3.35;;;1.58;;
37407;SDS011;24866;50.248;8.252;2024-02-26T12:20:33;4.07;;;2.13;;
37407;SDS011;24866;50.248;8.252;2024-02-26T12:23:04;5.05;;;2.70;;
37407;SDS011;24866;50.248;8.252;2024-02-26T12:25:35;7.85;;;5.32;;
37407;SDS011;24866;50.248;8.252;2024-02-26T12:28:06;8.98;;;5.40;;
37407;SDS011;24866;50.248;8.252;2024-02-26T12:30:36;26.10;;;13.90;;
37407;SDS011;24866;50.248;8.252;2024-02-26T12:33:07;3.90;;;2.13;;
37407;SDS011;24866;50.248;8.252;2024-02-26T12:35:37;7.75;;;3.78;;
37407;SDS011;24866;50.248;8.252;2024-02-26T12:38:08;4.35;;;1.95;;
37407;SDS011;24866;50.248;8.252;2024-02-26T12:40:38;3.35;;;2.20;;
37407;SDS011;24866;50.248;8.252;2024-02-26T12:43:09;2.92;;;1.63;;
37407;SDS011;24866;50.248;8.252;2024-02-26T12:45:41;4.18;;;2.72;;
37407;SDS011;24866;50.248;8.252;2024-02-26T12:48:13;5.05;;;2.22;;
37407;SDS011;24866;50.248;8.252;2024-02-26T12:50:44;3.83;;;2.33;;
37407;SDS011;24866;50.248;8.252;2024-02-26T12:53:15;3.92;;;2.28;;
37407;SDS011;24866;50.248;8.252;2024-02-26T12:55:45;2.40;;;1.55;;
37407;SDS011;24866;50.248;8.252;2024-02-26T12:58:17;6.68;;;2.63;;
37407;SDS011;24866;50.248;8.252;2024-02-26T13:00:48;6.40;;;5.20;;
37407;SDS011;24866;50.248;8.252;2024-02-26T13:03:19;4.05;;;2.35;;
37407;SDS011;24866;50.248;8.252;2024-02-26T13:05:49;3.33;;;2.30;;
37407;SDS011;24866;50.248;8.252;2024-02-26T13:08:20;2.53;;;1.23;;
37407;SDS011;24866;50.248;8.252;2024-02-26T13:10:52;4.65;;;2.28;;
37407;SDS011;24866;50.248;8.252;2024-02-26T13:13:24;3.60;;;1.80;;
37407;SDS011;24866;50.248;8.252;2024-02-26T13:16:00;4.55;;;2.13;;
37407;SDS011;24866;50.248;8.252;2024-02-26T13:18:31;3.83;;;1.90;;
37407;SDS011;24866;50.248;8.252;2024-02-26T13:21:07;4.68;;;1.65;;
37407;SDS011;24866;50.248;8.252;2024-02-26T13:23:38;4.38;;;1.75;;
37407;SDS011;24866;50.248;8.252;2024-02-26T13:26:08;3.17;;;1.70;;
37407;SDS011;24866;50.248;8.252;2024-02-26T13:28:43;2.70;;;1.75;;
37407;SDS011;24866;50.248;8.252;2024-02-26T13:31:13;2.75;;;1.67;;
37407;SDS011;24866;50.248;8.252;2024-02-26T13:33:46;4.00;;;1.90;;
37407;SDS011;24866;50.248;8.252;2024-02-26T13:36:17;5.60;;;2.08;;
37407;SDS011;24866;50.248;8.252;2024-02-26T13:38:51;3.88;;;1.70;;
37407;SDS011;24866;50.248;8.252;2024-02-26T13:41:21;2.72;;;1.58;;
37407;SDS011;24866;50.248;8.252;2024-02-26T13:43:53;3.50;;;1.50;;
37407;SDS011;24866;50.248;8.252;2024-02-26T13:46:26;3.28;;;1.80;;
37407;SDS011;24866;50.248;8.252;2024-02-26T13:48:56;2.75;;;1.70;;
37407;SDS011;24866;50.248;8.252;2024-02-26T13:51:27;4.75;;;2.03;;
37407;SDS011;24866;50.248;8.252;2024-02-26T13:54:03;2.85;;;1.23;;
37407;SDS011;24866;50.248;8.252;2024-02-26T13:56:34;3.97;;;1.63;;
37407;SDS011;24866;50.248;8.252;2024-02-26T13:59:06;3.22;;;1.40;;
37407;SDS011;24866;50.248;8.252;2024-02-26T14:01:36;2.17;;;1.42;;
37407;SDS011;24866;50.248;8.252;2024-02-26T14:04:07;3.42;;;1.92;;
37407;SDS011;24866;50.248;8.252;2024-02-26T14:06:38;3.83;;;1.67;;
37407;SDS011;24866;50.248;8.252;2024-02-26T14:09:09;3.33;;;1.55;;
37407;SDS011;24866;50.248;8.252;2024-02-26T14:11:40;3.53;;;1.60;;
37407;SDS011;24866;50.248;8.252;2024-02-26T14:14:12;3.03;;;1.42;;
37407;SDS011;24866;50.248;8.252;2024-02-26T14:19:13;3.25;;;1.95;;
37407;SDS011;24866;50.248;8.252;2024-02-26T14:21:44;2.53;;;1.33;;
37407;SDS011;24866;50.248;8.252;2024-02-26T14:24:14;4.43;;;1.85;;
37407;SDS011;24866;50.248;8.252;2024-02-26T14:26:45;3.80;;;2.05;;
37407;SDS011;24866;50.248;8.252;2024-02-26T14:29:17;2.85;;;1.70;;
37407;SDS011;24866;50.248;8.252;2024-02-26T14:31:47;6.78;;;1.70;;
37407;SDS011;24866;50.248;8.252;2024-02-26T14:34:18;4.07;;;2.00;;
37407;SDS011;24866;50.248;8.252;2024-02-26T14:36:48;3.80;;;2.08;;
37407;SDS011;24866;50.248;8.252;2024-02-26T14:39:19;3.05;;;1.67;;
37407;SDS011;24866;50.248;8.252;2024-02-26T14:41:50;4.03;;;1.65;;
37407;SDS011;24866;50.248;8.252;2024-02-26T14:44:21;3.30;;;1.77;;
37407;SDS011;24866;50.248;8.252;2024-02-26T14:46:52;3.38;;;1.55;;
37407;SDS011;24866;50.248;8.252;2024-02-26T14:49:23;3.20;;;1.90;;
37407;SDS011;24866;50.248;8.252;2024-02-26T14:51:53;4.03;;;1.90;;
37407;SDS011;24866;50.248;8.252;2024-02-26T14:54:24;3.80;;;1.60;;
37407;SDS011;24866;50.248;8.252;2024-02-26T14:56:55;4.15;;;1.58;;
37407;SDS011;24866;50.248;8.252;2024-02-26T14:59:27;3.35;;;1.83;;
37407;SDS011;24866;50.248;8.252;2024-02-26T15:01:59;3.88;;;1.75;;
37407;SDS011;24866;50.248;8.252;2024-02-26T15:04:29;3.50;;;1.73;;
37407;SDS011;24866;50.248;8.252;2024-02-26T15:07:00;4.88;;;1.98;;
37407;SDS011;24866;50.248;8.252;2024-02-26T15:09:30;3.50;;;1.80;;
37407;SDS011;24866;50.248;8.252;2024-02-26T15:12:02;3.03;;;1.77;;
37407;SDS011;24866;50.248;8.252;2024-02-26T15:14:36;6.72;;;2.00;;
37407;SDS011;24866;50.248;8.252;2024-02-26T15:17:07;3.33;;;1.90;;
37407;SDS011;24866;50.248;8.252;2024-02-26T15:19:41;3.70;;;1.92;;
37407;SDS011;24866;50.248;8.252;2024-02-26T15:22:12;5.90;;;2.70;;
37407;SDS011;24866;50.248;8.252;2024-02-26T15:24:43;5.13;;;2.83;;